createdAt,value
2023-04-25T00:02:12.480Z,25.95
2023-04-25T00:04:40.050Z,22.77
2023-04-25T00:07:07.124Z,21.85
2023-04-25T00:09:33.931Z,23.45
2023-04-25T00:12:02.226Z,22.58
2023-04-25T00:14:28.828Z,21.88
2023-04-25T00:16:55.772Z,20.40
2023-04-25T00:19:22.247Z,20.58
2023-04-25T00:21:48.868Z,17.40
2023-04-25T00:24:15.434Z,21.25
2023-04-25T00:26:41.904Z,19.02
2023-04-25T00:29:08.375Z,20.27
2023-04-25T00:31:34.931Z,22.90
2023-04-25T00:34:01.430Z,22.00
2023-04-25T00:36:28.553Z,15.05
2023-04-25T00:38:55.877Z,17.10
2023-04-25T00:41:22.683Z,17.40
2023-04-25T00:43:51.210Z,21.90
2023-04-25T00:46:17.895Z,16.20
2023-04-25T00:48:44.484Z,18.10
2023-04-25T00:51:16.864Z,23.35
2023-04-25T00:53:44.012Z,20.90
2023-04-25T00:56:10.843Z,16.20
2023-04-25T00:58:38.346Z,17.92
2023-04-25T01:01:05.140Z,19.75
2023-04-25T01:03:34.327Z,15.98
2023-04-25T01:06:01.065Z,16.48
2023-04-25T01:08:27.649Z,18.20
2023-04-25T01:10:54.202Z,15.52
2023-04-25T01:13:21.013Z,17.75
2023-04-25T01:15:47.489Z,14.50
2023-04-25T01:18:13.982Z,16.13
2023-04-25T01:20:42.825Z,17.80
2023-04-25T01:23:09.934Z,13.50
2023-04-25T01:25:36.853Z,18.13
2023-04-25T01:28:03.421Z,19.83
2023-04-25T01:30:30.209Z,15.85
2023-04-25T01:32:58.022Z,18.00
2023-04-25T01:35:25.101Z,16.95
2023-04-25T01:37:52.344Z,16.60
2023-04-25T01:40:20.144Z,2.75
2023-04-25T01:42:46.741Z,16.20
2023-04-25T01:45:13.551Z,2.78
2023-04-25T01:47:41.199Z,15.88
2023-04-25T01:50:09.147Z,16.55
2023-04-25T01:52:35.677Z,18.17
2023-04-25T01:55:03.418Z,16.63
2023-04-25T01:57:29.961Z,20.45
2023-04-25T02:00:05.004Z,2.58
2023-04-25T02:02:31.630Z,11.38
2023-04-25T02:04:58.210Z,21.58
2023-04-25T02:07:24.837Z,21.58
2023-04-25T02:09:51.433Z,20.02
2023-04-25T02:12:17.889Z,4.05
2023-04-25T02:14:44.413Z,23.25
2023-04-25T02:17:11.095Z,13.43
2023-04-25T02:19:37.721Z,23.75
2023-04-25T02:22:04.205Z,22.30
2023-04-25T02:24:30.910Z,9.00
2023-04-25T02:26:57.384Z,21.88
2023-04-25T02:29:24.057Z,23.33
2023-04-25T02:31:50.819Z,16.42
2023-04-25T02:34:17.332Z,20.85
2023-04-25T02:36:43.892Z,19.30
2023-04-25T02:39:11.291Z,23.02
2023-04-25T02:41:37.798Z,22.20
2023-04-25T02:44:04.298Z,27.23
2023-04-25T02:46:39.095Z,20.55
2023-04-25T02:49:07.326Z,19.35
2023-04-25T02:51:33.904Z,18.65
2023-04-25T02:54:00.574Z,22.35
2023-04-25T02:56:27.746Z,25.85
2023-04-25T02:58:54.890Z,19.63
2023-04-25T03:01:21.552Z,23.90
2023-04-25T03:03:48.214Z,1.13
2023-04-25T03:06:15.720Z,26.25
2023-04-25T03:08:42.376Z,20.23
2023-04-25T03:11:08.865Z,20.33
2023-04-25T03:13:35.528Z,16.50
2023-04-25T03:16:02.281Z,16.27
2023-04-25T03:18:28.775Z,20.88
2023-04-25T03:20:55.278Z,21.70
2023-04-25T03:23:22.140Z,22.17
2023-04-25T03:25:48.697Z,20.52
2023-04-25T03:28:15.575Z,19.90
2023-04-25T03:30:42.140Z,22.20
2023-04-25T03:33:08.632Z,23.27
2023-04-25T03:35:35.178Z,25.75
2023-04-25T03:38:01.691Z,19.90
2023-04-25T03:40:28.149Z,17.30
2023-04-25T03:42:54.682Z,5.25
2023-04-25T03:45:21.220Z,14.15
2023-04-25T03:47:49.003Z,14.80
2023-04-25T03:50:15.557Z,13.13
2023-04-25T03:52:42.049Z,15.18
2023-04-25T03:55:08.982Z,13.10
2023-04-25T03:57:35.453Z,15.93
2023-04-25T04:00:02.440Z,10.82
2023-04-25T04:02:29.126Z,15.65
2023-04-25T04:04:57.756Z,16.13
2023-04-25T04:07:24.513Z,13.27
2023-04-25T04:09:51.034Z,14.82
2023-04-25T04:12:17.512Z,14.93
2023-04-25T04:14:44.056Z,14.82
2023-04-25T04:17:10.541Z,18.90
2023-04-25T04:19:37.161Z,12.50
2023-04-25T04:22:03.668Z,13.15
2023-04-25T04:24:30.162Z,17.25
2023-04-25T04:26:57.618Z,18.80
2023-04-25T04:29:24.076Z,15.93
2023-04-25T04:31:52.082Z,16.15
2023-04-25T04:34:19.364Z,15.00
2023-04-25T04:36:49.574Z,13.27
2023-04-25T04:39:16.093Z,20.63
2023-04-25T04:41:43.789Z,14.25
2023-04-25T04:44:11.091Z,14.68
2023-04-25T04:47:14.550Z,22.10
2023-04-25T04:49:41.066Z,14.27
2023-04-25T04:52:07.504Z,17.20
2023-04-25T04:54:36.284Z,16.95
2023-04-25T04:57:02.770Z,17.92
2023-04-25T04:59:29.308Z,24.38
2023-04-25T05:01:55.730Z,22.40
2023-04-25T05:04:22.283Z,17.98
2023-04-25T05:06:49.195Z,16.15
2023-04-25T05:09:16.182Z,20.23
2023-04-25T05:11:42.631Z,15.38
2023-04-25T05:14:09.153Z,15.98
2023-04-25T05:16:36.243Z,17.13
2023-04-25T05:19:02.783Z,17.98
2023-04-25T05:21:29.278Z,24.67
2023-04-25T05:23:55.707Z,17.35
2023-04-25T05:26:22.122Z,15.68
2023-04-25T05:28:48.691Z,25.15
2023-04-25T05:31:15.425Z,22.45
2023-04-25T05:33:41.913Z,20.13
2023-04-25T05:36:08.752Z,17.00
2023-04-25T05:38:35.419Z,18.85
2023-04-25T05:41:01.991Z,22.58
2023-04-25T05:43:28.467Z,25.15
2023-04-25T05:45:55.067Z,23.20
2023-04-25T05:48:21.631Z,15.75
2023-04-25T05:50:48.712Z,24.95
2023-04-25T05:53:15.293Z,18.13
2023-04-25T05:55:41.728Z,22.83
2023-04-25T05:58:08.262Z,20.05
2023-04-25T06:00:34.977Z,20.67
2023-04-25T06:03:02.307Z,19.10
2023-04-25T06:05:29.769Z,18.35
2023-04-25T06:07:56.388Z,23.75
2023-04-25T06:10:23.712Z,24.70
2023-04-25T06:12:50.301Z,20.58
2023-04-25T06:15:27.323Z,18.02
2023-04-25T06:17:55.774Z,19.48
2023-04-25T06:20:24.253Z,27.35
2023-04-25T06:22:51.531Z,27.48
2023-04-25T06:25:18.218Z,31.17
2023-04-25T06:27:44.679Z,33.65
2023-04-25T06:30:13.077Z,32.88
2023-04-25T06:32:40.167Z,22.00
2023-04-25T06:35:07.149Z,23.23
2023-04-25T06:37:33.572Z,22.30
2023-04-25T06:40:00.151Z,19.75
2023-04-25T06:42:26.644Z,21.02
2023-04-25T06:44:53.149Z,27.40
2023-04-25T06:47:19.728Z,28.05
2023-04-25T06:49:46.235Z,25.55
2023-04-25T06:52:12.788Z,27.90
2023-04-25T06:54:39.336Z,15.40
2023-04-25T06:57:06.108Z,27.48
2023-04-25T06:59:33.770Z,23.58
2023-04-25T07:02:00.621Z,22.80
2023-04-25T07:04:27.348Z,19.70
2023-04-25T07:06:54.101Z,21.92
2023-04-25T07:09:20.607Z,18.27
2023-04-25T07:11:47.170Z,21.38
2023-04-25T07:14:13.646Z,21.67
2023-04-25T07:16:40.109Z,20.92
2023-04-25T07:19:06.678Z,17.65
2023-04-25T07:21:33.838Z,16.75
2023-04-25T07:24:00.450Z,25.10
2023-04-25T07:26:26.951Z,9.18
2023-04-25T07:28:53.446Z,10.18
2023-04-25T07:31:19.881Z,19.60
2023-04-25T07:33:46.857Z,18.30
2023-04-25T07:36:13.567Z,21.35
2023-04-25T07:38:40.559Z,14.20
2023-04-25T07:41:07.072Z,11.45
2023-04-25T07:43:33.872Z,14.30
2023-04-25T07:46:00.405Z,15.18
2023-04-25T07:48:26.985Z,22.60
2023-04-25T07:50:53.502Z,15.75
2023-04-25T07:53:19.993Z,11.15
2023-04-25T07:55:46.424Z,16.10
2023-04-25T07:58:13.152Z,18.30
2023-04-25T08:00:39.670Z,16.33
2023-04-25T08:03:07.655Z,9.55
2023-04-25T08:05:34.811Z,15.15
2023-04-25T08:08:01.928Z,1.23
2023-04-25T08:10:28.432Z,8.10
2023-04-25T08:12:54.924Z,9.90
2023-04-25T08:15:21.383Z,5.95
2023-04-25T08:17:47.917Z,11.57
2023-04-25T08:20:14.493Z,16.05
2023-04-25T08:22:41.182Z,5.43
2023-04-25T08:25:08.218Z,14.05
2023-04-25T08:27:34.707Z,12.27
2023-04-25T08:30:01.360Z,13.25
2023-04-25T08:32:29.609Z,13.68
2023-04-25T08:34:57.386Z,7.63
2023-04-25T08:37:23.841Z,8.63
2023-04-25T08:39:53.196Z,8.45
2023-04-25T08:42:22.564Z,24.25
2023-04-25T08:44:49.868Z,15.05
2023-04-25T08:47:16.938Z,15.23
2023-04-25T08:49:47.021Z,15.00
2023-04-25T08:52:14.796Z,11.32
2023-04-25T08:54:49.978Z,13.82
2023-04-25T08:57:16.490Z,13.73
2023-04-25T08:59:46.742Z,17.95
2023-04-25T09:02:18.846Z,10.63
2023-04-25T09:04:45.879Z,10.20
2023-04-25T09:07:12.847Z,11.10
2023-04-25T09:09:40.330Z,18.83
2023-04-25T09:12:07.146Z,11.00
2023-04-25T09:14:33.689Z,9.70
2023-04-25T09:17:02.777Z,13.73
2023-04-25T09:19:40.922Z,12.68
2023-04-25T09:22:08.942Z,12.60
2023-04-25T09:24:51.000Z,7.35
2023-04-25T09:27:27.755Z,13.40
2023-04-25T09:30:01.073Z,10.05
2023-04-25T09:32:27.762Z,10.80
2023-04-25T09:34:58.354Z,9.05
2023-04-25T09:37:26.763Z,6.70
2023-04-25T09:40:03.792Z,12.20
2023-04-25T09:42:32.413Z,8.68
2023-04-25T09:44:59.998Z,13.23
2023-04-25T09:47:27.800Z,7.90
2023-04-25T09:49:56.020Z,10.65
2023-04-25T09:52:25.854Z,12.10
2023-04-25T09:54:53.442Z,8.60
2023-04-25T09:57:22.099Z,11.70
2023-04-25T09:59:53.981Z,3.10
2023-04-25T10:02:22.509Z,5.10
2023-04-25T10:04:52.370Z,10.35
2023-04-25T10:07:19.848Z,12.90
2023-04-25T10:09:50.728Z,4.90
2023-04-25T10:12:17.704Z,4.07
2023-04-25T10:14:44.276Z,7.18
2023-04-25T10:17:15.132Z,6.60
2023-04-25T10:19:41.721Z,9.30
2023-04-25T10:22:13.998Z,14.35
2023-04-25T10:24:41.439Z,6.53
2023-04-25T10:27:08.530Z,13.15
2023-04-25T10:29:36.389Z,5.65
2023-04-25T10:32:03.480Z,12.27
2023-04-25T10:34:44.603Z,2.15
2023-04-25T10:37:12.208Z,8.85
2023-04-25T10:39:42.585Z,4.18
2023-04-25T10:42:09.423Z,8.00
2023-04-25T10:44:39.155Z,7.47
2023-04-25T10:47:08.491Z,2.85
2023-04-25T10:49:42.170Z,5.43
2023-04-25T10:52:16.315Z,6.35
2023-04-25T10:54:47.078Z,3.38
2023-04-25T10:57:40.765Z,8.77
2023-04-25T11:00:13.754Z,9.13
2023-04-25T11:02:53.412Z,11.05
2023-04-25T11:05:55.186Z,13.93
2023-04-25T11:08:51.364Z,7.65
2023-04-25T11:11:19.885Z,9.88
2023-04-25T11:13:50.800Z,9.98
2023-04-25T11:16:26.904Z,9.50
2023-04-25T11:18:54.471Z,3.13
2023-04-25T11:21:21.057Z,3.47
2023-04-25T11:23:47.581Z,10.57
2023-04-25T11:26:14.961Z,7.43
2023-04-25T11:28:41.530Z,5.05
2023-04-25T11:31:07.988Z,7.10
2023-04-25T11:33:34.456Z,5.25
2023-04-25T11:36:01.056Z,2.72
2023-04-25T11:38:29.285Z,4.72
2023-04-25T11:40:56.614Z,9.70
2023-04-25T11:43:23.731Z,5.75
2023-04-25T11:45:51.741Z,8.20
2023-04-25T11:48:22.357Z,5.15
2023-04-25T11:50:54.547Z,4.28
2023-04-25T11:53:21.405Z,4.22
2023-04-25T11:55:48.055Z,2.20
2023-04-25T11:58:14.807Z,7.25
2023-04-25T12:00:50.038Z,3.40
2023-04-25T12:03:19.587Z,0.73
2023-04-25T12:05:47.390Z,4.88
2023-04-25T12:08:15.744Z,8.82
2023-04-25T12:10:45.893Z,4.13
2023-04-25T12:13:26.384Z,5.97
2023-04-25T12:15:55.532Z,4.82
2023-04-25T12:18:25.002Z,7.97
2023-04-25T12:20:53.155Z,7.60
2023-04-25T12:23:27.302Z,5.85
2023-04-25T12:25:53.927Z,9.07
2023-04-25T12:28:25.440Z,8.02
2023-04-25T12:31:05.774Z,1.30
2023-04-25T12:33:34.811Z,2.67
2023-04-25T12:36:09.299Z,5.47
2023-04-25T12:38:40.725Z,4.27
2023-04-25T12:41:07.784Z,5.30
2023-04-25T12:43:34.705Z,6.88
2023-04-25T12:46:02.175Z,4.90
2023-04-25T12:48:28.738Z,5.97
2023-04-25T12:50:55.182Z,7.18
2023-04-25T12:53:23.680Z,3.78
2023-04-25T12:55:50.509Z,8.98
2023-04-25T12:58:18.761Z,7.78
2023-04-25T13:00:46.575Z,3.65
2023-04-25T13:03:13.569Z,2.63
2023-04-25T13:05:40.872Z,5.70
2023-04-25T13:08:07.506Z,4.38
2023-04-25T13:10:34.970Z,1.67
2023-04-25T13:13:02.210Z,6.40
2023-04-25T13:15:29.141Z,8.13
2023-04-25T13:17:56.350Z,7.40
2023-04-25T13:20:23.452Z,1.88
2023-04-25T13:22:50.012Z,6.82
2023-04-25T13:25:17.322Z,5.15
2023-04-25T13:27:45.218Z,4.70
2023-04-25T13:30:12.450Z,11.57
2023-04-25T13:32:39.543Z,4.68
2023-04-25T13:35:11.234Z,13.57
2023-04-25T13:37:38.389Z,9.40
2023-04-25T13:40:11.109Z,7.57
2023-04-25T13:42:38.880Z,5.20
2023-04-25T13:45:05.906Z,2.30
2023-04-25T13:47:32.397Z,4.40
2023-04-25T13:49:58.984Z,9.43
2023-04-25T13:52:25.458Z,7.85
2023-04-25T13:54:52.188Z,4.85
2023-04-25T13:57:18.918Z,2.35
2023-04-25T13:59:45.646Z,6.88
2023-04-25T14:02:12.120Z,4.82
2023-04-25T14:04:38.685Z,9.32
2023-04-25T14:07:05.909Z,2.47
2023-04-25T14:09:32.716Z,3.97
2023-04-25T14:11:59.329Z,4.35
2023-04-25T14:14:25.968Z,3.40
2023-04-25T14:16:54.771Z,5.47
2023-04-25T14:19:22.384Z,6.75
2023-04-25T14:21:49.059Z,6.20
2023-04-25T14:24:16.797Z,6.65
2023-04-25T14:26:44.271Z,3.33
2023-04-25T14:29:12.728Z,2.00
2023-04-25T14:31:41.166Z,4.97
2023-04-25T14:34:08.215Z,4.72
2023-04-25T14:36:35.040Z,4.78
2023-04-25T14:39:02.023Z,3.60
2023-04-25T14:41:28.540Z,7.03
2023-04-25T14:43:55.544Z,6.18
2023-04-25T14:46:23.136Z,5.35
2023-04-25T14:48:50.072Z,3.22
2023-04-25T14:51:16.752Z,7.82
2023-04-25T14:53:43.219Z,3.25
2023-04-25T14:56:09.942Z,7.35
2023-04-25T14:58:36.444Z,4.15
2023-04-25T15:01:03.058Z,8.45
2023-04-25T15:03:30.000Z,4.22
2023-04-25T15:05:56.899Z,3.97
2023-04-25T15:08:23.452Z,3.40
2023-04-25T15:10:50.302Z,9.32
2023-04-25T15:13:17.013Z,4.13
2023-04-25T15:15:43.462Z,8.75
2023-04-25T15:18:09.960Z,4.43
2023-04-25T15:20:36.635Z,3.25
2023-04-25T15:23:04.475Z,5.18
2023-04-25T15:25:31.078Z,7.70
2023-04-25T15:27:57.578Z,5.90
2023-04-25T15:30:24.403Z,4.75
2023-04-25T15:32:51.095Z,6.28
2023-04-25T15:35:17.652Z,5.95
2023-04-25T15:37:44.291Z,10.85
2023-04-25T15:40:17.523Z,8.75
2023-04-25T15:42:48.687Z,10.40
2023-04-25T15:45:17.748Z,4.93
2023-04-25T15:47:45.052Z,6.28
2023-04-25T15:50:12.222Z,6.25
2023-04-25T15:52:39.338Z,1.92
2023-04-25T15:55:06.414Z,8.57
2023-04-25T15:57:34.270Z,5.13
2023-04-25T16:00:01.683Z,2.22
2023-04-25T16:02:30.605Z,4.03
2023-04-25T16:04:57.890Z,3.80
2023-04-25T16:07:24.454Z,5.25
2023-04-25T16:09:50.894Z,6.55
2023-04-25T16:12:17.400Z,4.78
2023-04-25T16:14:43.836Z,7.15
2023-04-25T16:17:10.318Z,9.00
2023-04-25T16:19:37.611Z,3.80
2023-04-25T16:22:04.167Z,4.53
2023-04-25T16:24:30.678Z,6.75
2023-04-25T16:26:57.560Z,6.82
2023-04-25T16:29:24.071Z,7.32
2023-04-25T16:31:50.664Z,6.35
2023-04-25T16:34:17.236Z,11.15
2023-04-25T16:36:43.690Z,4.00
2023-04-25T16:39:10.144Z,8.13
2023-04-25T16:41:36.954Z,1.58
2023-04-25T16:44:03.425Z,8.50
2023-04-25T16:46:29.922Z,2.75
2023-04-25T16:48:56.466Z,4.75
2023-04-25T16:51:22.973Z,9.55
2023-04-25T16:53:49.479Z,5.95
2023-04-25T16:56:15.911Z,6.40
2023-04-25T16:58:42.448Z,5.40
2023-04-25T17:01:09.134Z,10.55
2023-04-25T17:03:35.703Z,8.13
2023-04-25T17:06:03.152Z,9.20
2023-04-25T17:08:29.639Z,20.15
2023-04-25T17:10:57.300Z,7.80
2023-04-25T17:13:30.718Z,5.07
2023-04-25T17:15:58.129Z,4.05
2023-04-25T17:18:24.804Z,7.78
2023-04-25T17:20:51.555Z,4.85
2023-04-25T17:23:19.069Z,8.63
2023-04-25T17:25:45.590Z,5.97
2023-04-25T17:28:13.024Z,8.88
2023-04-25T17:30:39.977Z,5.60
2023-04-25T17:33:09.439Z,11.80
2023-04-25T17:35:36.715Z,10.15
2023-04-25T17:38:04.211Z,2.10
2023-04-25T17:40:31.345Z,6.60
2023-04-25T17:42:57.880Z,9.45
2023-04-25T17:45:24.310Z,4.75
2023-04-25T17:47:50.803Z,6.00
2023-04-25T17:50:17.427Z,6.13
2023-04-25T17:52:45.114Z,9.23
2023-04-25T17:55:11.635Z,4.68
2023-04-25T17:57:38.132Z,11.70
2023-04-25T18:00:07.810Z,6.80
2023-04-25T18:02:36.385Z,2.53
2023-04-25T18:05:09.470Z,5.93
2023-04-25T18:07:36.931Z,10.75
2023-04-25T18:10:07.488Z,7.63
2023-04-25T18:12:34.823Z,6.18
2023-04-25T18:15:01.874Z,9.52
2023-04-25T18:17:28.450Z,6.32
2023-04-25T18:19:55.476Z,4.97
2023-04-25T18:22:22.274Z,12.10
2023-04-25T18:24:50.019Z,6.32
2023-04-25T18:27:16.633Z,6.40
2023-04-25T18:29:45.229Z,7.20
2023-04-25T18:32:12.040Z,6.88
2023-04-25T18:34:41.413Z,7.50
2023-04-25T18:37:07.922Z,4.90
2023-04-25T18:39:34.356Z,9.60
2023-04-25T18:42:06.472Z,4.90
2023-04-25T18:44:36.568Z,10.40
2023-04-25T18:47:03.128Z,5.60
2023-04-25T18:49:29.560Z,14.85
2023-04-25T18:51:57.379Z,6.40
2023-04-25T18:54:23.888Z,8.48
2023-04-25T18:56:50.414Z,12.68
2023-04-25T18:59:18.006Z,10.02
2023-04-25T19:01:44.677Z,6.82
2023-04-25T19:04:11.532Z,7.93
2023-04-25T19:06:38.196Z,8.23
2023-04-25T19:09:04.681Z,11.45
2023-04-25T19:11:31.129Z,11.80
2023-04-25T19:13:57.714Z,10.70
2023-04-25T19:16:26.152Z,7.07
2023-04-25T19:18:55.285Z,10.10
2023-04-25T19:21:22.540Z,6.00
2023-04-25T19:23:49.027Z,7.25
2023-04-25T19:26:15.528Z,9.85
2023-04-25T19:28:44.803Z,7.60
2023-04-25T19:31:12.713Z,12.52
2023-04-25T19:33:39.212Z,13.70
2023-04-25T19:36:05.816Z,8.82
2023-04-25T19:38:32.330Z,8.00
2023-04-25T19:40:58.780Z,10.07
2023-04-25T19:43:25.191Z,8.13
2023-04-25T19:45:51.762Z,7.15
2023-04-25T19:48:18.254Z,6.13
2023-04-25T19:50:44.746Z,14.63
2023-04-25T19:53:11.238Z,13.30
2023-04-25T19:55:37.689Z,12.90
2023-04-25T19:58:04.338Z,4.97
2023-04-25T20:00:30.931Z,6.57
2023-04-25T20:02:57.539Z,10.77
2023-04-25T20:05:24.107Z,11.63
2023-04-25T20:07:50.569Z,13.95
2023-04-25T20:10:17.391Z,5.28
2023-04-25T20:12:44.659Z,10.45
2023-04-25T20:15:11.725Z,9.20
2023-04-25T20:17:42.495Z,12.68
2023-04-25T20:20:11.271Z,13.02
2023-04-25T20:22:40.153Z,12.60
2023-04-25T20:25:08.619Z,8.25
2023-04-25T20:27:37.883Z,13.55
2023-04-25T20:30:07.983Z,11.35
2023-04-25T20:32:35.967Z,14.13
2023-04-25T20:35:03.935Z,12.27
2023-04-25T20:37:34.605Z,14.82
2023-04-25T20:40:03.826Z,10.30
2023-04-25T20:42:31.084Z,8.98
2023-04-25T20:44:57.639Z,15.65
2023-04-25T20:47:24.151Z,12.60
2023-04-25T20:49:50.646Z,18.35
2023-04-25T20:52:17.206Z,16.08
2023-04-25T20:54:44.943Z,15.00
2023-04-25T20:57:12.165Z,11.93
2023-04-25T20:59:38.640Z,9.68
2023-04-25T21:02:05.201Z,13.40
2023-04-25T21:04:32.014Z,14.57
2023-04-25T21:07:00.125Z,10.25
2023-04-25T21:09:26.631Z,11.70
2023-04-25T21:11:53.059Z,17.48
2023-04-25T21:14:19.529Z,14.05
2023-04-25T21:16:46.100Z,15.63
2023-04-25T21:19:12.581Z,14.93
2023-04-25T21:21:39.731Z,14.07
2023-04-25T21:24:06.513Z,17.30
2023-04-25T21:26:33.048Z,13.07
2023-04-25T21:28:59.618Z,16.92
2023-04-25T21:31:26.345Z,16.13
2023-04-25T21:33:53.414Z,18.50
2023-04-25T21:36:19.954Z,11.52
2023-04-25T21:38:46.538Z,9.70
2023-04-25T21:41:13.167Z,14.00
2023-04-25T21:43:39.743Z,11.57
2023-04-25T21:46:22.054Z,10.70
2023-04-25T21:48:50.769Z,15.23
2023-04-25T21:51:17.782Z,11.30
2023-04-25T21:53:44.304Z,15.05
2023-04-25T21:56:11.057Z,12.20
2023-04-25T21:58:37.468Z,13.77
2023-04-25T22:01:04.867Z,14.35
2023-04-25T22:03:32.724Z,11.93
2023-04-25T22:05:59.399Z,12.63
2023-04-25T22:08:25.997Z,10.80
2023-04-25T22:10:55.140Z,9.48
2023-04-25T22:13:22.751Z,10.40
2023-04-25T22:15:49.591Z,19.05
2023-04-25T22:18:16.296Z,8.45
2023-04-25T22:20:44.418Z,10.02
2023-04-25T22:23:12.046Z,10.02
2023-04-25T22:25:38.718Z,13.45
2023-04-25T22:28:05.320Z,10.77
2023-04-25T22:30:32.357Z,14.25
2023-04-25T22:32:58.856Z,12.75
2023-04-25T22:35:25.505Z,20.35
2023-04-25T22:37:51.942Z,10.27
2023-04-25T22:40:18.447Z,14.65
2023-04-25T22:42:44.935Z,12.05
2023-04-25T22:45:12.210Z,15.13
2023-04-25T22:47:39.743Z,14.52
2023-04-25T22:50:12.482Z,12.98
2023-04-25T22:52:39.363Z,10.52
2023-04-25T22:55:06.764Z,12.65
2023-04-25T22:57:33.512Z,12.70
2023-04-25T22:59:59.969Z,15.82
2023-04-25T23:02:27.489Z,21.90
2023-04-25T23:04:54.789Z,17.50
2023-04-25T23:07:21.386Z,13.88
2023-04-25T23:09:47.834Z,16.60
2023-04-25T23:12:17.884Z,10.95
2023-04-25T23:14:44.519Z,15.00
2023-04-25T23:17:11.630Z,11.27
2023-04-25T23:19:38.241Z,21.20
2023-04-25T23:22:05.834Z,12.60
2023-04-25T23:24:37.528Z,13.10
2023-04-25T23:27:04.048Z,13.48
2023-04-25T23:29:32.166Z,19.70
2023-04-25T23:31:59.384Z,15.05
2023-04-25T23:34:25.829Z,11.82
2023-04-25T23:36:52.250Z,11.82
2023-04-25T23:39:19.246Z,15.25
2023-04-25T23:41:45.976Z,14.57
2023-04-25T23:44:12.418Z,11.82
2023-04-25T23:46:38.943Z,16.40
2023-04-25T23:49:05.522Z,13.68
2023-04-25T23:51:32.312Z,15.55
2023-04-25T23:53:58.886Z,15.57
2023-04-25T23:56:25.700Z,14.80
2023-04-25T23:58:52.777Z,15.43
